Time;durP1;ratioP1;P1;durP2;ratioP2;P2;SDS_P1;SDS_P2;PMS_P1;PMS_P2;Temp;Humidity;BMP_temperature;BMP_pressure;BME280_temperature;BME280_humidity;BME280_pressure;Samples;Min_cycle;Max_cycle;Signal;HPM_P1;HPM_P2
2022/02/09 00:07:21;;;;;;;0.60;0.60;;;19.10;99.90;;;;;;4983697;28;20176;-55
2022/02/09 00:09:49;;;;;;;1.13;1.00;;;19.00;99.90;;;;;;5012936;28;20045;-58
2022/02/09 00:12:21;;;;;;;0.30;0.30;;;19.00;99.90;;;;;;5001713;28;20505;-58
2022/02/09 01:57:01;;;;;;;0.40;0.40;;;18.80;99.90;;;;;;5026302;28;20041;-57
2022/02/09 01:59:30;;;;;;;0.47;0.47;;;18.80;99.90;;;;;;5018959;28;20053;-56
2022/02/09 02:01:57;;;;;;;0.30;0.30;;;18.80;99.90;;;;;;5000080;28;20053;-56
2022/02/09 02:04:25;;;;;;;0.30;0.30;;;18.80;99.90;;;;;;5027958;28;20038;-56
2022/02/09 02:06:54;;;;;;;0.30;0.30;;;18.80;99.90;;;;;;5019771;28;20045;-59
2022/02/09 02:09:24;;;;;;;2.75;1.40;;;18.80;99.90;;;;;;5012982;28;20513;-58
2022/02/09 02:12:04;;;;;;;0.40;0.40;;;18.80;99.90;;;;;;5025106;28;20429;-55
2022/02/09 02:14:57;;;;;;;0.45;0.45;;;18.80;99.90;;;;;;5013482;28;20049;-59
2022/02/09 02:17:46;;;;;;;0.50;0.50;;;18.80;99.90;;;;;;5004779;28;20053;-58
2022/02/09 02:20:25;;;;;;;0.45;0.45;;;18.80;99.90;;;;;;4998713;28;20049;-56
2022/02/09 02:25:58;;;;;;;0.30;0.30;;;18.80;99.90;;;;;;5022756;28;20053;-58
2022/02/09 02:33:51;;;;;;;0.30;0.30;;;18.90;99.90;;;;;;4969790;28;20085;-55
2022/02/09 02:47:21;;;;;;;0.30;0.30;;;18.80;99.90;;;;;;5016662;28;20052;-59
2022/02/09 03:13:48;;;;;;;0.40;0.40;;;18.70;99.90;;;;;;5010745;28;20050;-58
2022/02/09 03:16:26;;;;;;;0.65;0.65;;;18.70;99.90;;;;;;5000940;28;20445;-57
2022/02/09 03:21:50;;;;;;;0.30;0.30;;;18.70;99.90;;;;;;5010894;28;20157;-56
2022/02/09 03:24:34;;;;;;;0.30;0.30;;;18.70;99.90;;;;;;5008228;28;20049;-59
2022/02/09 03:27:21;;;;;;;0.47;0.47;;;18.60;99.90;;;;;;5018227;28;20760;-59
2022/02/09 03:54:32;;;;;;;0.30;0.30;;;18.60;99.90;;;;;;5020054;28;20049;-56
2022/02/09 03:59:28;;;;;;;0.50;0.50;;;18.70;99.90;;;;;;5002742;28;20084;-56
2022/02/09 04:01:55;;;;;;;0.30;0.30;;;18.60;99.90;;;;;;5023069;28;20470;-55
2022/02/09 04:04:25;;;;;;;2.45;1.00;;;18.60;99.90;;;;;;5010781;28;20048;-58
2022/02/09 04:06:53;;;;;;;0.50;0.50;;;18.60;99.90;;;;;;5026035;28;20409;-58
2022/02/09 04:09:26;;;;;;;0.30;0.30;;;18.60;99.90;;;;;;5009235;28;20041;-58
2022/02/09 04:12:15;;;;;;;0.40;0.40;;;18.60;99.90;;;;;;5011504;28;20046;-58
2022/02/09 04:17:28;;;;;;;0.40;0.40;;;18.60;99.90;;;;;;5020585;28;20058;-59
2022/02/09 04:36:04;;;;;;;0.50;0.50;;;18.60;99.90;;;;;;5016497;28;20588;-57
2022/02/09 04:37:25;;;;;;;0.30;0.30;;;18.50;99.90;;;;;;4923499;29;20043;-57
2022/02/09 04:39:58;;;;;;;0.68;0.52;;;18.50;99.90;;;;;;5003957;28;20061;-57
2022/02/09 04:42:50;;;;;;;0.30;0.30;;;18.50;99.90;;;;;;5016826;28;20053;-56
2022/02/09 04:48:25;;;;;;;0.30;0.30;;;18.50;99.90;;;;;;5025518;28;20045;-59
2022/02/09 04:51:00;;;;;;;0.40;0.40;;;18.50;99.90;;;;;;4998204;28;20053;-58
2022/02/09 04:56:12;;;;;;;0.30;0.30;;;18.60;99.90;;;;;;4994716;28;20509;-58
2022/02/09 04:58:52;;;;;;;0.40;0.40;;;18.70;99.90;;;;;;5021353;28;20068;-59
2022/02/09 05:25:51;;;;;;;0.95;0.93;;;19.60;99.90;;;;;;5018427;28;20050;-60
2022/02/09 05:28:21;;;;;;;0.50;0.50;;;19.80;99.90;;;;;;5027034;28;20060;-59
2022/02/09 05:30:53;;;;;;;0.93;0.93;;;19.90;99.90;;;;;;5010551;28;20049;-61
2022/02/09 05:33:22;;;;;;;0.88;0.88;;;20.00;99.90;;;;;;5031263;28;20053;-61
2022/02/09 05:35:50;;;;;;;0.57;0.57;;;20.20;99.90;;;;;;5027774;28;20064;-58
2022/02/09 05:38:18;;;;;;;0.50;0.50;;;20.30;99.90;;;;;;5015246;28;20445;-59
2022/02/09 05:40:46;;;;;;;0.60;0.60;;;20.40;99.90;;;;;;5009789;28;20061;-58
2022/02/09 05:43:15;;;;;;;0.77;0.77;;;20.50;99.90;;;;;;5026686;28;20424;-60
2022/02/09 05:46:05;;;;;;;0.45;0.45;;;20.70;99.90;;;;;;5020145;28;20045;-58
2022/02/09 06:01:37;;;;;;;1.13;1.02;;;21.30;99.90;;;;;;5017836;28;20056;-58
2022/02/09 06:04:06;;;;;;;2.78;1.45;;;21.30;99.90;;;;;;5017017;28;20510;-59
2022/02/09 06:06:33;;;;;;;1.58;1.20;;;21.30;99.90;;;;;;5017439;28;20435;-57
2022/02/09 06:09:01;;;;;;;3.20;0.73;;;21.20;99.90;;;;;;5008658;28;20049;-60
2022/02/09 06:11:53;;;;;;;0.85;0.52;;;21.20;99.90;;;;;;5016340;28;20056;-56
2022/02/09 06:19:54;;;;;;;0.68;0.68;;;21.30;99.90;;;;;;5013942;28;20053;-60
2022/02/09 06:22:23;;;;;;;0.77;0.75;;;21.30;99.90;;;;;;5014639;28;20053;-60
2022/02/09 06:24:51;;;;;;;2.28;1.58;;;21.30;99.90;;;;;;5022334;28;20048;-56
2022/02/09 06:27:19;;;;;;;0.75;0.75;;;21.30;99.90;;;;;;5018007;28;20065;-58
2022/02/09 06:29:49;;;;;;;0.40;0.40;;;21.40;99.90;;;;;;5021279;28;20045;-59
2022/02/09 06:32:18;;;;;;;0.38;0.38;;;21.40;99.90;;;;;;5020306;28;20048;-58
2022/02/09 06:34:47;;;;;;;0.47;0.47;;;21.40;99.90;;;;;;5026662;28;20094;-60
2022/02/09 06:37:35;;;;;;;1.02;0.70;;;21.40;99.90;;;;;;5027175;28;20072;-60
2022/02/09 06:40:03;;;;;;;0.60;0.60;;;21.40;99.90;;;;;;5013171;28;20046;-59
2022/02/09 06:42:31;;;;;;;3.30;1.33;;;21.40;99.90;;;;;;5027888;28;20056;-63
2022/02/09 06:45:05;;;;;;;0.32;0.32;;;21.40;99.90;;;;;;5017113;28;20053;-60
2022/02/09 06:47:33;;;;;;;0.85;0.75;;;21.30;99.90;;;;;;5025992;28;20049;-62
2022/02/09 06:50:05;;;;;;;0.75;0.75;;;21.30;99.90;;;;;;5024141;28;20048;-58
2022/02/09 06:52:33;;;;;;;0.38;0.38;;;21.20;99.90;;;;;;5012578;28;20060;-61
2022/02/09 06:55:13;;;;;;;0.30;0.30;;;21.20;99.90;;;;;;5020517;28;20064;-62
2022/02/09 07:00:20;;;;;;;0.60;0.60;;;21.20;99.90;;;;;;5021727;28;20053;-62
2022/02/09 07:02:48;;;;;;;0.40;0.40;;;21.20;99.90;;;;;;5017902;28;20045;-60
2022/02/09 07:05:16;;;;;;;0.30;0.30;;;21.10;99.90;;;;;;5020904;28;20497;-61
2022/02/09 07:07:44;;;;;;;0.57;0.57;;;21.10;99.90;;;;;;5020347;28;20044;-62
2022/02/09 07:10:12;;;;;;;0.80;0.77;;;21.20;99.90;;;;;;5020015;28;20352;-60
2022/02/09 07:12:41;;;;;;;6.47;1.48;;;21.10;99.90;;;;;;5018712;28;20676;-60
2022/02/09 07:15:14;;;;;;;0.38;0.38;;;21.00;99.90;;;;;;5016544;28;20514;-63
2022/02/09 07:17:43;;;;;;;5.40;1.65;;;21.00;99.90;;;;;;5018376;28;20060;-57
2022/02/09 07:20:19;;;;;;;4.63;2.55;;;21.00;99.90;;;;;;5019321;28;20061;-59
2022/02/09 07:22:50;;;;;;;0.50;0.50;;;21.00;99.90;;;;;;5018566;28;20056;-59
2022/02/09 07:25:19;;;;;;;0.63;0.63;;;21.00;99.90;;;;;;5022059;28;20050;-57
2022/02/09 07:30:20;;;;;;;5.07;1.30;;;20.90;99.90;;;;;;5016293;28;20416;-62
2022/02/09 07:32:47;;;;;;;0.30;0.30;;;20.90;99.90;;;;;;5016915;28;20363;-62
2022/02/09 07:35:14;;;;;;;0.57;0.57;;;20.80;99.90;;;;;;5017337;28;20393;-62
2022/02/09 07:37:42;;;;;;;2.42;1.70;;;20.80;99.90;;;;;;5020327;28;20448;-64
2022/02/09 07:40:11;;;;;;;0.40;0.40;;;20.80;99.90;;;;;;5019506;28;20049;-64
2022/02/09 07:42:45;;;;;;;0.60;0.60;;;20.80;99.90;;;;;;5014860;28;20056;-63
2022/02/09 07:48:01;;;;;;;0.60;0.60;;;21.00;99.90;;;;;;5001597;28;20045;-64
2022/02/09 07:50:31;;;;;;;0.30;0.30;;;21.10;99.90;;;;;;4999139;28;20045;-63
2022/02/09 07:53:08;;;;;;;0.55;0.55;;;21.30;99.90;;;;;;5019039;28;20048;-62
2022/02/09 07:55:37;;;;;;;1.88;1.58;;;21.50;99.90;;;;;;5020249;28;20056;-61
2022/02/09 07:58:05;;;;;;;0.75;0.68;;;21.60;99.90;;;;;;5020404;28;20446;-59
2022/02/09 08:00:33;;;;;;;0.43;0.43;;;21.70;99.90;;;;;;5015470;28;20105;-62
2022/02/09 08:03:01;;;;;;;1.15;0.88;;;21.80;99.90;;;;;;5012074;28;20874;-61
2022/02/09 08:05:29;;;;;;;0.28;0.28;;;21.80;99.90;;;;;;5019345;28;20046;-61
2022/02/09 08:07:56;;;;;;;0.40;0.40;;;21.70;99.90;;;;;;5019771;28;20050;-61
2022/02/09 08:10:38;;;;;;;;;;;21.70;99.90;;;;;;4991906;28;20661;-62
2022/02/09 08:30:02;;;;;;;1.13;0.52;;;21.50;99.90;;;;;;5021475;28;20041;-63
2022/02/09 08:34:59;;;;;;;1.40;0.82;;;21.50;99.90;;;;;;5023513;28;20460;-61
2022/02/09 08:37:27;;;;;;;4.40;0.95;;;21.50;99.90;;;;;;5021929;28;20049;-64
2022/02/09 08:39:55;;;;;;;2.03;1.10;;;21.50;99.90;;;;;;5022835;28;20504;-60
2022/02/09 08:42:24;;;;;;;0.30;0.30;;;21.40;99.90;;;;;;5016740;28;20057;-62
2022/02/09 08:44:53;;;;;;;0.35;0.35;;;21.40;99.90;;;;;;5017286;28;20049;-60
2022/02/09 08:47:41;;;;;;;0.40;0.40;;;21.30;99.90;;;;;;5022634;28;20476;-61
2022/02/09 08:50:09;;;;;;;0.40;0.40;;;21.40;99.90;;;;;;5021891;28;20049;-61
2022/02/09 08:52:36;;;;;;;0.40;0.40;;;21.30;99.90;;;;;;5018152;28;20480;-65
2022/02/09 08:55:04;;;;;;;0.32;0.32;;;21.30;99.90;;;;;;5019276;28;20061;-62
2022/02/09 08:57:32;;;;;;;0.43;0.43;;;21.20;99.90;;;;;;5003266;28;20049;-63
2022/02/09 09:00:01;;;;;;;0.32;0.32;;;21.20;99.90;;;;;;5022336;28;20611;-65
2022/02/09 09:02:34;;;;;;;0.47;0.47;;;21.10;99.90;;;;;;5020748;28;20065;-64
2022/02/09 09:05:13;;;;;;;0.30;0.30;;;21.10;99.90;;;;;;5019356;28;20062;-63
2022/02/09 09:07:43;;;;;;;0.30;0.30;;;21.10;99.90;;;;;;5020448;28;20417;-65
2022/02/09 09:10:17;;;;;;;0.88;0.65;;;21.10;99.90;;;;;;5019847;28;20371;-65
2022/02/09 10:05:47;;;;;;;0.47;0.47;;;21.70;99.90;;;;;;5014830;28;20052;-57
2022/02/09 10:34:12;;;;;;;0.60;0.60;;;21.40;99.90;;;;;;5015963;28;20045;-62
2022/02/09 10:36:54;;;;;;;0.73;0.70;;;21.30;99.90;;;;;;5024408;28;20056;-60
2022/02/09 10:39:32;;;;;;;3.50;1.45;;;21.30;99.90;;;;;;5018450;28;20410;-57
2022/02/09 10:42:15;;;;;;;;;;;21.30;99.90;;;;;;5010216;28;20052;-57
2022/02/09 10:44:52;;;;;;;0.65;0.65;;;21.30;99.90;;;;;;5016581;28;19929;-58
2022/02/09 10:47:22;;;;;;;0.70;0.70;;;21.20;99.90;;;;;;5020786;28;20112;-60
2022/02/09 10:50:09;;;;;;;0.60;0.60;;;21.20;99.90;;;;;;5014911;28;20056;-57
2022/02/09 10:52:40;;;;;;;1.23;1.13;;;21.20;99.90;;;;;;5017664;28;20121;-56
2022/02/09 10:55:31;;;;;;;0.40;0.40;;;21.20;99.90;;;;;;5013801;28;20049;-59
2022/02/09 10:57:59;;;;;;;0.90;0.75;;;21.10;99.90;;;;;;5017937;28;20045;-60
2022/02/09 11:00:27;;;;;;;1.55;1.05;;;21.10;99.90;;;;;;5009688;28;20049;-58
2022/02/09 11:02:56;;;;;;;0.25;0.25;;;21.10;99.90;;;;;;5019075;28;20045;-60
2022/02/09 11:05:23;;;;;;;;;;;21.10;99.90;;;;;;5026895;28;20057;-56
2022/02/09 11:07:52;;;;;;;0.30;0.30;;;21.10;99.90;;;;;;5010794;28;19932;-56
2022/02/09 11:10:19;;;;;;;0.30;0.30;;;21.20;99.90;;;;;;5008266;28;20068;-58
2022/02/09 11:12:47;;;;;;;0.60;0.60;;;21.20;99.90;;;;;;5023461;28;20049;-61
2022/02/09 11:15:21;;;;;;;0.40;0.40;;;21.30;99.90;;;;;;5010822;28;20041;-59
2022/02/09 11:17:49;;;;;;;1.67;1.58;;;21.40;99.90;;;;;;5011098;28;20528;-57
2022/02/09 11:20:20;;;;;;;0.40;0.40;;;21.50;99.90;;;;;;5012963;28;20041;-59
2022/02/09 11:22:48;;;;;;;0.73;0.73;;;21.50;99.90;;;;;;5023719;28;20053;-59
2022/02/09 11:25:19;;;;;;;;;;;21.60;99.90;;;;;;5021806;28;20042;-59
2022/02/09 11:27:58;;;;;;;0.35;0.35;;;21.70;99.90;;;;;;5035301;28;19925;-59
2022/02/09 11:30:38;;;;;;;0.30;0.30;;;21.70;99.90;;;;;;5025519;28;20278;-60
2022/02/09 11:36:49;;;;;;;0.30;0.30;;;21.80;99.90;;;;;;5011837;28;20050;-60
2022/02/09 11:39:08;;;;;;;1.25;0.85;;;21.80;99.90;;;;;;5015616;28;20065;-59
2022/02/09 11:41:49;;;;;;;0.32;0.32;;;21.80;99.90;;;;;;5028649;28;20052;-58
2022/02/09 11:45:38;;;;;;;0.57;0.47;;;21.80;99.90;;;;;;5022355;28;20468;-59
2022/02/09 11:56:18;;;;;;;0.55;0.55;;;21.70;99.90;;;;;;5020850;28;20053;-59
2022/02/09 12:12:12;;;;;;;0.30;0.30;;;21.50;99.90;;;;;;5017269;28;20050;-61
2022/02/09 12:14:48;;;;;;;0.30;0.30;;;21.40;99.90;;;;;;5000026;28;20050;-59
2022/02/09 12:20:16;;;;;;;0.25;0.25;;;21.40;99.90;;;;;;5020633;28;20054;-59
2022/02/09 12:23:03;;;;;;;0.60;0.60;;;21.40;99.90;;;;;;5016991;28;20467;-61
2022/02/09 12:25:41;;;;;;;;;;;21.30;99.90;;;;;;5021701;28;20143;-61
2022/02/09 12:28:20;;;;;;;0.30;0.30;;;21.30;99.90;;;;;;5038403;28;19929;-59
2022/02/09 12:30:49;;;;;;;0.90;0.70;;;21.30;99.90;;;;;;5020100;28;20145;-60
2022/02/09 12:33:24;;;;;;;0.40;0.40;;;21.30;99.90;;;;;;5018158;28;20041;-61
2022/02/09 12:35:52;;;;;;;0.40;0.40;;;21.30;99.90;;;;;;5029057;28;20050;-59
2022/02/09 12:38:30;;;;;;;0.30;0.30;;;21.30;99.90;;;;;;5015041;28;20489;-58
2022/02/09 12:41:13;;;;;;;0.45;0.45;;;21.30;99.90;;;;;;5017889;28;20390;-58
2022/02/09 12:43:56;;;;;;;1.20;0.98;;;21.20;99.90;;;;;;5027261;28;20056;-59
2022/02/09 12:46:27;;;;;;;0.30;0.30;;;21.20;99.90;;;;;;5020755;28;20062;-60
2022/02/09 12:49:03;;;;;;;0.40;0.40;;;21.20;99.90;;;;;;5008698;28;20476;-59
2022/02/09 12:51:30;;;;;;;0.73;0.73;;;21.20;99.90;;;;;;5017982;28;20056;-57
2022/02/09 12:54:05;;;;;;;0.75;0.75;;;21.20;99.90;;;;;;5030391;28;20061;-58
2022/02/09 12:56:42;;;;;;;0.40;0.40;;;21.30;99.90;;;;;;5022147;28;20523;-59
2022/02/09 12:59:14;;;;;;;0.30;0.30;;;21.30;99.90;;;;;;5020445;28;20038;-59
2022/02/09 13:01:48;;;;;;;0.40;0.40;;;21.40;99.90;;;;;;5035904;28;20060;-60
2022/02/09 13:04:37;;;;;;;0.40;0.40;;;21.50;99.90;;;;;;5025007;28;20049;-57
2022/02/09 13:07:11;;;;;;;0.38;0.38;;;21.60;99.90;;;;;;5028772;28;20054;-60
2022/02/09 13:09:49;;;;;;;0.30;0.30;;;21.70;99.90;;;;;;5014872;28;20049;-58
2022/02/09 13:12:27;;;;;;;0.30;0.30;;;21.80;99.90;;;;;;5020179;28;20059;-59
2022/02/09 13:15:06;;;;;;;0.60;0.60;;;21.80;99.90;;;;;;5013667;28;20064;-60
2022/02/09 13:21:34;;;;;;;1.17;0.73;;;21.90;99.90;;;;;;5012354;28;19922;-58
2022/02/09 13:24:09;;;;;;;0.30;0.30;;;21.90;99.90;;;;;;5028738;28;20057;-57
2022/02/09 14:11:53;;;;;;;1.55;0.52;;;21.60;99.90;;;;;;5019946;28;20569;-58
2022/02/09 14:56:04;;;;;;;1.45;1.30;;;21.60;99.90;;;;;;5020794;28;20044;-58
2022/02/09 14:58:35;;;;;;;0.30;0.30;;;21.70;99.90;;;;;;5003665;28;20087;-56
2022/02/09 15:01:20;;;;;;;0.30;0.30;;;21.80;99.90;;;;;;5022598;28;20050;-59
2022/02/09 15:04:13;;;;;;;0.30;0.30;;;21.70;99.90;;;;;;5014931;28;20050;-59
2022/02/09 15:06:54;;;;;;;0.60;0.60;;;21.80;99.90;;;;;;5021326;28;20057;-57
2022/02/09 15:09:36;;;;;;;0.30;0.30;;;21.90;99.90;;;;;;5015021;28;20041;-59
2022/02/09 15:12:30;;;;;;;0.30;0.30;;;21.90;99.90;;;;;;5021069;28;20068;-57
2022/02/09 15:18:02;;;;;;;0.43;0.43;;;22.00;99.90;;;;;;5014637;28;20052;-58
2022/02/09 15:23:17;;;;;;;0.90;0.50;;;22.00;99.90;;;;;;5020574;28;20056;-60
2022/02/09 15:25:44;;;;;;;0.30;0.30;;;21.90;99.90;;;;;;5014367;28;20426;-57
2022/02/09 15:28:13;;;;;;;1.75;0.90;;;21.80;99.90;;;;;;5016008;28;20052;-61
2022/02/09 15:30:50;;;;;;;0.38;0.38;;;21.80;99.90;;;;;;5019561;28;20056;-59
2022/02/09 15:33:23;;;;;;;3.85;2.03;;;21.90;99.90;;;;;;5023667;28;20390;-61
2022/02/09 15:36:14;;;;;;;0.85;0.85;;;21.90;99.90;;;;;;5015943;28;20053;-62
2022/02/09 15:38:48;;;;;;;4.50;2.92;;;21.90;99.90;;;;;;5024974;28;20045;-64
2022/02/09 16:06:00;;;;;;;6.82;2.90;;;21.60;99.90;;;;;;5016885;28;20046;-58
2022/02/09 16:21:56;;;;;;;3.00;1.55;;;21.50;99.90;;;;;;5017714;28;20057;-60
2022/02/09 16:46:15;;;;;;;1.08;1.08;;;21.70;99.90;;;;;;5017206;28;20061;-58
2022/02/09 16:48:48;;;;;;;;;;;21.00;99.90;;;;;;5016580;28;20037;-58
2022/02/09 16:51:19;;;;;;;0.80;0.73;;;20.50;99.90;;;;;;5017190;28;19925;-58
2022/02/09 16:54:04;;;;;;;14.55;2.17;;;20.30;99.90;;;;;;5022124;28;20052;-58
2022/02/09 17:21:21;;;;;;;1.00;0.82;;;21.90;99.90;;;;;;5017612;28;20353;-60
2022/02/09 17:23:50;;;;;;;0.77;0.77;;;21.80;99.90;;;;;;5020109;28;20404;-61
2022/02/09 17:26:18;;;;;;;3.90;1.75;;;21.80;99.90;;;;;;5021013;28;20696;-57
2022/02/09 17:28:49;;;;;;;1.85;1.00;;;21.80;99.90;;;;;;5013018;28;20042;-59
2022/02/09 17:31:45;;;;;;;9.90;0.98;;;21.80;99.90;;;;;;5015594;28;20041;-58
2022/02/09 17:58:25;;;;;;;1.02;1.02;;;21.60;99.90;;;;;;5010589;28;20072;-56
2022/02/09 18:00:53;;;;;;;1.25;0.93;;;21.60;99.90;;;;;;5005635;28;20533;-58
2022/02/09 18:03:20;;;;;;;0.85;0.82;;;21.60;99.90;;;;;;5027488;28;20048;-56
2022/02/09 18:05:54;;;;;;;0.30;0.30;;;21.50;99.90;;;;;;5021868;28;20493;-58
2022/02/09 18:08:52;;;;;;;1.33;1.05;;;21.50;99.90;;;;;;5028013;28;20042;-59
2022/02/09 18:25:38;;;;;;;0.57;0.57;;;21.40;99.90;;;;;;4997031;28;20429;-58
2022/02/09 18:31:10;;;;;;;0.40;0.40;;;21.40;99.90;;;;;;4942660;29;20063;-60
2022/02/09 18:33:52;;;;;;;0.63;0.63;;;21.40;99.90;;;;;;5007678;28;20062;-56
2022/02/09 18:44:14;;;;;;;2.08;0.75;;;21.40;99.90;;;;;;5013734;28;20147;-60
2022/02/09 19:00:45;;;;;;;1.08;0.85;;;21.30;99.90;;;;;;5018083;28;20089;-57
2022/02/09 19:03:17;;;;;;;0.60;0.60;;;21.20;99.90;;;;;;5018835;28;20167;-58
2022/02/09 19:05:47;;;;;;;0.68;0.68;;;21.30;99.90;;;;;;5021287;28;20049;-58
2022/02/09 19:08:31;;;;;;;0.40;0.40;;;21.30;99.90;;;;;;5016748;28;20054;-59
2022/02/09 19:48:42;;;;;;;2.40;1.47;;;21.10;99.90;;;;;;5021983;28;20056;-59
2022/02/09 19:51:21;;;;;;;1.23;1.05;;;21.10;99.90;;;;;;5019552;28;20049;-60
2022/02/09 19:56:26;;;;;;;0.38;0.38;;;21.00;99.90;;;;;;5019549;28;20034;-60
2022/02/09 20:01:26;;;;;;;1.95;1.00;;;21.00;99.90;;;;;;5021305;28;20041;-59
2022/02/09 20:03:54;;;;;;;0.63;0.63;;;21.00;99.90;;;;;;5019614;28;20061;-59
2022/02/09 20:06:21;;;;;;;0.30;0.30;;;20.90;99.90;;;;;;5021668;28;20053;-56
2022/02/09 20:08:49;;;;;;;;;;;20.90;99.90;;;;;;5019394;28;20056;-59
2022/02/09 20:11:17;;;;;;;0.52;0.52;;;20.90;99.90;;;;;;5014481;28;20247;-60
2022/02/09 20:13:50;;;;;;;1.17;1.13;;;20.90;99.90;;;;;;5013193;28;20030;-59
2022/02/09 20:16:20;;;;;;;3.60;1.63;;;20.80;99.90;;;;;;5016267;28;20386;-64
2022/02/09 20:18:47;;;;;;;4.50;1.98;;;20.80;99.90;;;;;;5022292;28;20419;-59
2022/02/09 20:21:16;;;;;;;;;;;20.80;99.90;;;;;;5017812;28;20046;-61
2022/02/09 20:23:44;;;;;;;0.55;0.55;;;20.80;99.90;;;;;;5021259;28;19948;-58
2022/02/09 20:26:13;;;;;;;0.85;0.85;;;20.80;99.90;;;;;;5021405;28;20417;-61
2022/02/09 20:28:47;;;;;;;0.30;0.30;;;20.80;99.90;;;;;;5009072;28;20053;-59
2022/02/09 20:31:19;;;;;;;0.93;0.90;;;20.80;99.90;;;;;;5025376;28;20112;-59
2022/02/09 20:33:53;;;;;;;1.67;1.20;;;20.70;99.90;;;;;;4996963;28;20053;-57
2022/02/09 20:36:21;;;;;;;0.73;0.73;;;20.70;99.90;;;;;;5020401;28;20049;-58
2022/02/09 20:38:53;;;;;;;0.65;0.65;;;20.70;99.90;;;;;;5019590;28;20504;-58
2022/02/09 20:41:21;;;;;;;2.85;1.67;;;20.70;99.90;;;;;;5024584;28;20076;-59
2022/02/09 20:46:34;;;;;;;1.70;1.35;;;20.60;99.90;;;;;;5019055;28;20413;-57
2022/02/09 20:49:03;;;;;;;1.45;1.15;;;20.60;99.90;;;;;;5023751;28;20041;-58
2022/02/09 20:51:31;;;;;;;2.35;1.75;;;20.60;99.90;;;;;;5014041;28;20064;-56
2022/02/09 20:53:58;;;;;;;1.75;1.10;;;20.60;99.90;;;;;;5015882;28;20057;-58
2022/02/09 20:56:26;;;;;;;1.75;1.13;;;20.60;99.90;;;;;;5024149;28;20136;-58
2022/02/09 20:59:00;;;;;;;0.90;0.88;;;20.60;99.90;;;;;;5017013;28;20044;-58
2022/02/09 21:01:37;;;;;;;0.93;0.93;;;20.50;99.90;;;;;;5017785;28;20050;-59
2022/02/09 21:04:08;;;;;;;0.40;0.40;;;20.50;99.90;;;;;;5022130;28;20073;-58
2022/02/09 21:06:52;;;;;;;0.55;0.40;;;20.50;99.90;;;;;;5026882;28;20038;-56
2022/02/09 21:17:29;;;;;;;0.30;0.30;;;20.50;99.90;;;;;;5014246;28;20037;-60
2022/02/09 21:20:54;;;;;;;0.47;0.47;;;20.40;99.90;;;;;;5009176;28;20263;-58
2022/02/09 21:59:18;;;;;;;0.55;0.55;;;20.20;99.90;;;;;;4990222;28;20457;-57
2022/02/09 22:16:15;;;;;;;0.30;0.30;;;20.20;99.90;;;;;;5016070;28;20056;-56
2022/02/09 22:50:44;;;;;;;2.35;1.50;;;20.00;99.90;;;;;;5023123;28;20470;-56
2022/02/09 22:55:58;;;;;;;0.45;0.45;;;20.00;99.90;;;;;;5020941;28;20061;-61
2022/02/09 22:58:25;;;;;;;0.43;0.43;;;20.00;99.90;;;;;;5013861;28;20504;-57
2022/02/09 23:01:02;;;;;;;0.40;0.40;;;20.00;99.90;;;;;;5004378;28;20058;-54
2022/02/09 23:16:14;;;;;;;;;;;19.90;99.90;;;;;;5018275;28;20493;-55
2022/02/09 23:19:45;;;;;;;1.35;1.00;;;19.90;99.90;;;;;;5003501;28;20141;-58
2022/02/09 23:21:49;;;;;;;0.57;0.57;;;19.90;99.90;;;;;;5016700;28;20445;-58
